Time;durP1;ratioP1;P1;durP2;ratioP2;P2;SDS_P1;SDS_P2;PMS_P1;PMS_P2;Temp;Humidity;BMP_temperature;BMP_pressure;BME280_temperature;BME280_humidity;BME280_pressure;Samples;Min_cycle;Max_cycle;Signal;HPM_P1;HPM_P2
2022/09/12 00:01:15;;;;;;;;;;;;;;;20.85;100.00;100507.84;5024904;28;19929;-78
2022/09/12 00:03:42;;;;;;;;;;;;;;;20.73;100.00;100505.53;5022213;28;19922;-82
2022/09/12 00:06:11;;;;;;;;;;;;;;;20.47;100.00;100507.50;5023425;28;19980;-78
2022/09/12 00:08:38;;;;;;;;;;;;;;;20.29;100.00;100490.03;5024772;28;20305;-78
2022/09/12 00:11:06;;;;;;;;;;;;;;;20.21;100.00;100491.44;5023251;28;20347;-81
2022/09/12 00:13:33;;;;;;;;;;;;;;;20.66;100.00;100494.22;5033977;28;20093;-78
2022/09/12 00:15:59;;;;;;;;;;;;;;;20.59;100.00;100484.53;5024025;28;19979;-82
2022/09/12 00:18:28;;;;;;;;;;;;;;;20.45;100.00;100486.19;5022444;28;19921;-79
2022/09/12 00:20:54;;;;;;;;;;;;;;;20.57;100.00;100488.59;5028121;28;20346;-82
2022/09/12 00:23:22;;;;;;;;;;;;;;;20.12;100.00;100507.38;5027960;28;20324;-79
2022/09/12 00:25:51;;;;;;;;;;;;;;;20.02;100.00;100503.88;5026523;28;19921;-79
2022/09/12 00:28:23;;;;;;;;;;;;;;;20.17;100.00;100503.84;5021466;28;20255;-81
2022/09/12 00:30:50;;;;;;;;;;;;;;;20.18;100.00;100513.53;5014824;28;19921;-81
2022/09/12 00:33:17;;;;;;;;;;;;;;;19.89;100.00;100511.47;5025443;28;20376;-81
2022/09/12 00:35:48;;;;;;;;;;;;;;;20.19;100.00;100508.97;5019232;28;19988;-81
2022/09/12 00:38:20;;;;;;;;;;;;;;;20.57;100.00;100499.38;5027060;28;19920;-81
2022/09/12 00:40:47;;;;;;;;;;;;;;;19.97;100.00;100496.63;5021434;28;19921;-77
2022/09/12 00:43:14;;;;;;;;;;;;;;;19.43;100.00;100508.78;5022909;28;19933;-80
2022/09/12 00:45:44;;;;;;;;;;;;;;;19.60;100.00;100508.50;5022257;28;19921;-79
2022/09/12 00:48:19;;;;;;;;;;;;;;;19.95;100.00;100506.06;5030515;28;19957;-81
2022/09/12 00:50:48;;;;;;;;;;;;;;;19.67;100.00;100511.78;5023442;28;20301;-79
2022/09/12 00:53:17;;;;;;;;;;;;;;;19.61;100.00;100512.81;5028391;28;19921;-83
2022/09/12 00:55:51;;;;;;;;;;;;;;;19.73;100.00;100514.44;5027624;28;19952;-79
2022/09/12 00:58:20;;;;;;;;;;;;;;;19.44;100.00;100525.75;5024821;28;19922;-82
2022/09/12 01:00:47;;;;;;;;;;;;;;;19.90;100.00;100523.84;5019476;28;19979;-79
2022/09/12 01:03:17;;;;;;;;;;;;;;;19.73;100.00;100519.81;5022789;28;19948;-78
2022/09/12 01:05:54;;;;;;;;;;;;;;;19.59;100.00;100498.81;5025014;28;19925;-81
2022/09/12 01:08:26;;;;;;;;;;;;;;;19.68;100.00;100499.09;5026494;28;19925;-82
2022/09/12 01:10:52;;;;;;;;;;;;;;;19.33;100.00;100507.97;5023693;28;20410;-81
2022/09/12 01:13:22;;;;;;;;;;;;;;;19.10;100.00;100506.63;5029850;28;19982;-79
2022/09/12 01:15:49;;;;;;;;;;;;;;;19.59;100.00;100496.13;5022561;28;19979;-79
2022/09/12 01:18:22;;;;;;;;;;;;;;;19.68;100.00;100496.41;5023963;28;20357;-81
2022/09/12 01:20:54;;;;;;;;;;;;;;;19.46;100.00;100499.38;5027372;28;19948;-82
2022/09/12 01:23:42;;;;;;;;;;;;;;;19.23;100.00;100509.59;5023563;28;19921;-80
2022/09/12 01:26:31;;;;;;;;;;;;;;;19.26;100.00;100502.06;5020423;28;19990;-78
2022/09/12 01:29:16;;;;;;;;;;;;;;;19.30;100.00;100517.38;5022774;28;19930;-81
2022/09/12 01:31:54;;;;;;;;;;;;;;;19.29;100.00;100513.09;5020152;28;20044;-81
2022/09/12 01:34:27;;;;;;;;;;;;;;;19.22;100.00;100524.13;5026182;28;20396;-83
2022/09/12 01:36:59;;;;;;;;;;;;;;;19.63;100.00;100507.94;5016689;28;19933;-82
2022/09/12 01:39:30;;;;;;;;;;;;;;;19.31;100.00;100515.53;5013626;28;19929;-80
2022/09/12 01:42:05;;;;;;;;;;;;;;;19.29;100.00;100521.16;5024405;28;20001;-82
2022/09/12 01:44:35;;;;;;;;;;;;;;;19.05;100.00;100514.69;5019626;28;20012;-79
2022/09/12 01:47:07;;;;;;;;;;;;;;;19.28;100.00;100511.47;5022797;28;19925;-79
2022/09/12 01:49:38;;;;;;;;;;;;;;;19.06;100.00;100516.28;5020788;28;20386;-78
2022/09/12 01:52:08;;;;;;;;;;;;;;;18.73;100.00;100511.13;5022540;28;19991;-81
2022/09/12 01:54:40;;;;;;;;;;;;;;;19.07;100.00;100517.94;5015279;28;19929;-81
2022/09/12 01:57:15;;;;;;;;;;;;;;;19.06;100.00;100519.78;5018684;28;19975;-78
2022/09/12 01:59:48;;;;;;;;;;;;;;;18.97;100.00;100519.53;5013407;28;19931;-82
2022/09/12 02:02:20;;;;;;;;;;;;;;;19.33;100.00;100524.94;5098638;23;19933;-82
2022/09/12 02:04:51;;;;;;;;;;;;;;;18.72;100.00;100527.50;4992657;28;20004;-83
2022/09/12 02:07:20;;;;;;;;;;;;;;;18.75;100.00;100519.72;4993414;28;19928;-82
2022/09/12 02:09:50;;;;;;;;;;;;;;;19.38;100.00;100530.31;4995208;28;19929;-82
2022/09/12 02:12:20;;;;;;;;;;;;;;;18.63;100.00;100523.69;4992557;28;19921;-81
2022/09/12 02:14:50;;;;;;;;;;;;;;;19.33;100.00;100524.13;4988609;28;19984;-81
2022/09/12 02:17:20;;;;;;;;;;;;;;;18.99;100.00;100520.03;4996927;28;19976;-79
2022/09/12 02:19:52;;;;;;;;;;;;;;;18.49;100.00;100523.38;4996107;28;19953;-83
2022/09/12 02:22:21;;;;;;;;;;;;;;;18.28;100.00;100514.44;4996743;28;19925;-84
2022/09/12 02:24:50;;;;;;;;;;;;;;;19.10;100.00;100520.88;4989251;28;19925;-82
2022/09/12 02:27:21;;;;;;;;;;;;;;;20.33;100.00;100500.00;4997235;28;19922;-80
2022/09/12 02:29:48;;;;;;;;;;;;;;;19.32;100.00;100503.66;4995189;28;20350;-81
2022/09/12 02:32:21;;;;;;;;;;;;;;;18.84;100.00;100505.75;4994257;28;19925;-79
2022/09/12 02:34:54;;;;;;;;;;;;;;;18.79;100.00;100497.66;4990980;28;19922;-79
2022/09/12 02:37:25;;;;;;;;;;;;;;;18.56;100.00;100505.13;4990705;28;19928;-78
2022/09/12 02:39:52;;;;;;;;;;;;;;;18.65;100.00;100495.47;4984849;28;19922;-81
2022/09/12 02:42:19;;;;;;;;;;;;;;;18.34;100.00;100499.13;4996247;28;19929;-81
2022/09/12 02:44:45;;;;;;;;;;;;;;;18.81;100.00;100488.25;4993829;28;19980;-82
2022/09/12 02:47:15;;;;;;;;;;;;;;;18.14;100.00;100497.94;4986507;28;20420;-78
2022/09/12 02:49:41;;;;;;;;;;;;;;;18.59;100.00;100496.53;4986254;28;19930;-78
2022/09/12 02:52:09;;;;;;;;;;;;;;;18.31;100.00;100506.66;4986486;28;19932;-80
2022/09/12 02:54:36;;;;;;;;;;;;;;;17.90;100.00;100500.25;4989829;28;19976;-78
2022/09/12 02:57:03;;;;;;;;;;;;;;;17.83;100.00;100497.78;4987739;28;20314;-78
2022/09/12 02:59:30;;;;;;;;;;;;;;;18.11;100.00;100498.47;4983800;28;20353;-77
2022/09/12 03:02:03;;;;;;;;;;;;;;;17.99;100.00;100495.19;4988818;28;20317;-77
2022/09/12 03:04:43;;;;;;;;;;;;;;;18.98;100.00;100498.81;4984664;28;19977;-81
2022/09/12 03:07:15;;;;;;;;;;;;;;;18.39;100.00;100507.19;4993692;28;19984;-77
2022/09/12 03:09:45;;;;;;;;;;;;;;;18.26;100.00;100503.13;4989802;28;19921;-82
2022/09/12 03:12:20;;;;;;;;;;;;;;;17.85;100.00;100508.25;4987865;28;20390;-82
2022/09/12 03:15:07;;;;;;;;;;;;;;;18.52;100.00;100512.09;4995495;28;20366;-78
2022/09/12 03:17:46;;;;;;;;;;;;;;;18.18;100.00;100509.78;4996127;28;19922;-78
2022/09/12 03:20:15;;;;;;;;;;;;;;;18.02;100.00;100511.59;4994997;28;20393;-78
2022/09/12 03:22:50;;;;;;;;;;;;;;;17.87;100.00;100505.31;4987417;28;19933;-78
2022/09/12 03:25:18;;;;;;;;;;;;;;;18.00;100.00;100505.69;4985956;28;20421;-82
2022/09/12 03:27:48;;;;;;;;;;;;;;;17.67;100.00;100508.63;4986777;28;20347;-81
2022/09/12 03:30:14;;;;;;;;;;;;;;;17.65;100.00;100508.91;4989902;28;19926;-82
2022/09/12 03:32:42;;;;;;;;;;;;;;;17.96;100.00;100509.13;4995584;28;20279;-79
2022/09/12 03:35:09;;;;;;;;;;;;;;;18.17;100.00;100515.44;4995762;28;19925;-81
2022/09/12 03:37:35;;;;;;;;;;;;;;;17.76;100.00;100515.16;4995578;28;20000;-78
2022/09/12 03:40:07;;;;;;;;;;;;;;;17.71;100.00;100515.13;4995875;28;19988;-81
2022/09/12 03:42:40;;;;;;;;;;;;;;;17.31;100.00;100516.44;4994822;28;19926;-82
2022/09/12 03:45:09;;;;;;;;;;;;;;;17.79;100.00;100522.72;4994179;28;19933;-78
2022/09/12 03:47:37;;;;;;;;;;;;;;;17.87;100.00;100524.13;4995000;28;20358;-78
2022/09/12 03:50:05;;;;;;;;;;;;;;;17.62;100.00;100520.97;4995534;28;19992;-82
2022/09/12 03:52:31;;;;;;;;;;;;;;;17.41;100.00;100521.88;4990991;28;19921;-84
2022/09/12 03:54:58;;;;;;;;;;;;;;;17.93;100.00;100520.41;4993971;28;19992;-79
2022/09/12 03:57:26;;;;;;;;;;;;;;;17.79;100.00;100528.94;4994545;28;19926;-82
2022/09/12 03:59:53;;;;;;;;;;;;;;;18.05;100.00;100524.50;4995494;28;19976;-78
2022/09/12 04:02:19;;;;;;;;;;;;;;;18.02;100.00;100519.66;4994504;28;19922;-79
2022/09/12 04:04:49;;;;;;;;;;;;;;;18.09;100.00;100532.84;4994536;28;19938;-82
2022/09/12 04:07:18;;;;;;;;;;;;;;;18.54;100.00;100537.63;4994163;28;19922;-82
2022/09/12 04:09:45;;;;;;;;;;;;;;;19.03;100.00;100527.59;4991677;28;19929;-83
2022/09/12 04:12:12;;;;;;;;;;;;;;;19.13;100.00;100539.19;4995636;28;19925;-79
2022/09/12 04:14:43;;;;;;;;;;;;;;;18.35;100.00;100530.31;4994901;28;19921;-82
2022/09/12 04:17:10;;;;;;;;;;;;;;;18.40;100.00;100520.41;4994475;28;19922;-83
2022/09/12 04:19:38;;;;;;;;;;;;;;;18.35;100.00;100533.81;4995099;28;19992;-81
2022/09/12 04:22:07;;;;;;;;;;;;;;;18.42;100.00;100538.94;4994811;28;19983;-83
2022/09/12 04:24:33;;;;;;;;;;;;;;;17.83;100.00;100543.44;4994109;28;19926;-79
2022/09/12 04:27:02;;;;;;;;;;;;;;;17.49;100.00;100550.94;4994476;28;20349;-79
2022/09/12 04:29:30;;;;;;;;;;;;;;;18.97;100.00;100554.50;4994407;28;19922;-80
2022/09/12 04:32:05;;;;;;;;;;;;;;;19.16;100.00;100552.13;4994942;28;19992;-78
2022/09/12 04:34:31;;;;;;;;;;;;;;;18.56;100.00;100558.91;4994243;28;19922;-79
2022/09/12 04:36:58;;;;;;;;;;;;;;;18.26;100.00;100565.75;4994336;28;19964;-78
2022/09/12 04:39:25;;;;;;;;;;;;;;;18.87;100.00;100570.63;4994912;28;19922;-82
2022/09/12 04:41:54;;;;;;;;;;;;;;;18.81;100.00;100574.34;4994118;28;19932;-81
2022/09/12 04:44:23;;;;;;;;;;;;;;;19.35;100.00;100583.91;4994198;28;20371;-78
2022/09/12 04:46:51;;;;;;;;;;;;;;;19.82;100.00;100586.41;4994439;28;19922;-78
2022/09/12 04:49:19;;;;;;;;;;;;;;;18.80;100.00;100596.16;4990938;28;19922;-79
2022/09/12 04:51:46;;;;;;;;;;;;;;;19.14;100.00;100591.16;4994444;28;19933;-82
2022/09/12 04:54:14;;;;;;;;;;;;;;;18.17;100.00;100588.00;4994815;28;19989;-78
2022/09/12 04:56:41;;;;;;;;;;;;;;;18.95;100.00;100588.13;4994297;28;20380;-83
2022/09/12 04:59:08;;;;;;;;;;;;;;;18.53;100.00;100583.63;4994318;28;20379;-78
2022/09/12 05:01:35;;;;;;;;;;;;;;;18.24;100.00;100600.13;4993734;28;19926;-79
2022/09/12 05:04:07;;;;;;;;;;;;;;;18.35;100.00;100602.91;4994542;28;20341;-78
2022/09/12 05:06:39;;;;;;;;;;;;;;;19.04;100.00;100601.91;4994335;28;20366;-78
2022/09/12 05:09:07;;;;;;;;;;;;;;;18.77;100.00;100600.19;4994295;28;19922;-81
2022/09/12 05:11:34;;;;;;;;;;;;;;;18.07;100.00;100600.31;4994033;28;19980;-81
2022/09/12 05:14:01;;;;;;;;;;;;;;;18.45;100.00;100598.38;4994087;28;19922;-78
2022/09/12 05:16:30;;;;;;;;;;;;;;;18.62;100.00;100598.19;4994189;28;19988;-78
2022/09/12 05:18:57;;;;;;;;;;;;;;;19.05;100.00;100595.44;4991315;28;20148;-80
2022/09/12 05:21:29;;;;;;;;;;;;;;;18.83;100.00;100601.00;4994463;28;19925;-80
2022/09/12 05:24:00;;;;;;;;;;;;;;;19.50;100.00;100594.69;4993436;28;20362;-77
2022/09/12 05:26:29;;;;;;;;;;;;;;;18.34;100.00;100588.66;4994103;28;20429;-78
2022/09/12 05:28:55;;;;;;;;;;;;;;;18.83;100.00;100595.63;4994165;28;20338;-83
2022/09/12 05:31:23;;;;;;;;;;;;;;;20.14;100.00;100591.47;4993888;28;20263;-83
2022/09/12 05:33:50;;;;;;;;;;;;;;;18.68;100.00;100589.09;4993676;28;19953;-80
2022/09/12 05:36:18;;;;;;;;;;;;;;;18.88;100.00;100596.47;4993696;28;19926;-83
2022/09/12 05:38:47;;;;;;;;;;;;;;;18.90;100.00;100593.50;4993824;28;19929;-82
2022/09/12 05:41:16;;;;;;;;;;;;;;;19.16;100.00;100592.50;4993154;28;19922;-77
2022/09/12 05:43:44;;;;;;;;;;;;;;;19.09;100.00;100596.50;4993632;28;20354;-81
2022/09/12 05:46:13;;;;;;;;;;;;;;;19.21;100.00;100597.06;4993104;28;20366;-82
2022/09/12 05:48:41;;;;;;;;;;;;;;;19.34;100.00;100593.06;4993508;28;19921;-84
2022/09/12 05:51:10;;;;;;;;;;;;;;;19.94;100.00;100602.28;4997475;28;19922;-78
2022/09/12 05:53:37;;;;;;;;;;;;;;;20.41;100.00;100605.69;4993198;28;19936;-83
2022/09/12 05:56:07;;;;;;;;;;;;;;;20.05;100.00;100614.66;4997130;28;20248;-81
2022/09/12 05:58:37;;;;;;;;;;;;;;;18.72;100.00;100609.00;4997650;28;19933;-82
2022/09/12 06:01:10;;;;;;;;;;;;;;;20.13;100.00;100608.72;4994453;28;19922;-81
2022/09/12 06:03:39;;;;;;;;;;;;;;;19.89;100.00;100602.28;4990834;28;19928;-79
2022/09/12 06:06:06;;;;;;;;;;;;;;;20.58;100.00;100609.72;4988590;28;20482;-84
2022/09/12 06:08:36;;;;;;;;;;;;;;;20.25;100.00;100602.25;4992894;28;19976;-82
2022/09/12 06:11:03;;;;;;;;;;;;;;;19.99;100.00;100612.25;4993494;28;19932;-78
2022/09/12 06:13:33;;;;;;;;;;;;;;;20.07;100.00;100609.81;4993515;28;20326;-79
2022/09/12 06:16:05;;;;;;;;;;;;;;;19.33;100.00;100613.78;4981119;28;19929;-83
2022/09/12 06:18:34;;;;;;;;;;;;;;;20.23;100.00;100612.47;4992356;28;19922;-82
2022/09/12 06:21:06;;;;;;;;;;;;;;;19.90;100.00;100614.66;4997542;28;19921;-79
2022/09/12 06:23:36;;;;;;;;;;;;;;;20.33;100.00;100607.06;4996602;28;19922;-83
2022/09/12 06:26:08;;;;;;;;;;;;;;;20.27;100.00;100611.69;4997005;28;20275;-80
2022/09/12 06:28:38;;;;;;;;;;;;;;;20.55;100.00;100604.09;4988997;28;20020;-82
2022/09/12 06:31:10;;;;;;;;;;;;;;;21.63;100.00;100607.00;4997197;28;20430;-82
2022/09/12 06:33:39;;;;;;;;;;;;;;;20.49;100.00;100602.44;4997198;28;19928;-81
2022/09/12 06:36:09;;;;;;;;;;;;;;;20.35;100.00;100608.41;4994150;28;19925;-79
2022/09/12 06:38:37;;;;;;;;;;;;;;;20.22;100.00;100610.88;4996867;28;19921;-81
2022/09/12 06:41:06;;;;;;;;;;;;;;;20.80;100.00;100605.88;4993869;28;20382;-79
2022/09/12 06:43:33;;;;;;;;;;;;;;;20.84;100.00;100606.13;4987249;28;19933;-80
2022/09/12 06:46:00;;;;;;;;;;;;;;;20.85;100.00;100611.25;4996580;28;20007;-80
2022/09/12 06:48:34;;;;;;;;;;;;;;;20.96;100.00;100607.41;4995468;28;19921;-83
2022/09/12 06:51:04;;;;;;;;;;;;;;;21.44;100.00;100609.59;4996875;28;20298;-82
2022/09/12 06:53:32;;;;;;;;;;;;;;;21.28;100.00;100612.34;4996121;28;20294;-78
2022/09/12 06:56:02;;;;;;;;;;;;;;;21.49;100.00;100612.25;4995020;28;19936;-78
2022/09/12 06:58:38;;;;;;;;;;;;;;;22.03;100.00;100595.06;4995347;28;19932;-79
2022/09/12 07:01:09;;;;;;;;;;;;;;;20.66;100.00;100611.03;4992095;28;19921;-78
2022/09/12 07:03:37;;;;;;;;;;;;;;;21.20;100.00;100612.94;4994034;28;20013;-82
2022/09/12 07:06:06;;;;;;;;;;;;;;;20.99;100.00;100614.94;4992642;28;20437;-83
2022/09/12 07:08:32;;;;;;;;;;;;;;;21.13;100.00;100619.75;4999268;28;19940;-78
2022/09/12 07:11:01;;;;;;;;;;;;;;;21.71;100.00;100618.03;4989941;28;19929;-78
2022/09/12 07:13:33;;;;;;;;;;;;;;;21.43;100.00;100610.69;4991647;28;19979;-78
2022/09/12 07:16:01;;;;;;;;;;;;;;;21.03;100.00;100607.13;4986853;28;20350;-81
2022/09/12 07:18:29;;;;;;;;;;;;;;;21.45;100.00;100620.13;4990528;28;19922;-82
2022/09/12 07:21:01;;;;;;;;;;;;;;;21.43;100.00;100616.09;4997603;28;20263;-79
2022/09/12 07:23:28;;;;;;;;;;;;;;;21.96;100.00;100610.78;4989992;28;19922;-78
2022/09/12 07:25:59;;;;;;;;;;;;;;;21.76;100.00;100619.91;4990816;28;19921;-82
2022/09/12 07:28:27;;;;;;;;;;;;;;;21.88;100.00;100623.03;4988651;28;19999;-81
2022/09/12 07:30:56;;;;;;;;;;;;;;;21.44;100.00;100615.00;4988608;28;19930;-78
2022/09/12 07:33:24;;;;;;;;;;;;;;;22.31;100.00;100614.28;4988697;28;20028;-79
2022/09/12 07:35:53;;;;;;;;;;;;;;;22.45;100.00;100611.69;4991321;28;19921;-82
2022/09/12 07:38:21;;;;;;;;;;;;;;;22.46;100.00;100613.31;4991512;28;19963;-81
2022/09/12 07:40:50;;;;;;;;;;;;;;;22.60;100.00;100608.78;4989222;28;19929;-78
2022/09/12 07:43:20;;;;;;;;;;;;;;;22.37;100.00;100613.13;4994275;28;19929;-82
2022/09/12 07:45:46;;;;;;;;;;;;;;;22.44;100.00;100605.47;4999427;28;19929;-77
2022/09/12 07:48:16;;;;;;;;;;;;;;;23.20;100.00;100606.41;4993675;28;19925;-79
2022/09/12 07:50:43;;;;;;;;;;;;;;;23.24;100.00;100599.34;4993924;28;19921;-83
2022/09/12 07:53:12;;;;;;;;;;;;;;;23.19;100.00;100604.00;4996333;28;19957;-80
2022/09/12 07:55:40;;;;;;;;;;;;;;;23.10;100.00;100609.28;4995794;28;20004;-82
2022/09/12 07:58:09;;;;;;;;;;;;;;;22.72;100.00;100611.09;4994518;28;19922;-79
2022/09/12 08:00:38;;;;;;;;;;;;;;;22.57;100.00;100598.53;4992140;28;19976;-82
2022/09/12 08:03:06;;;;;;;;;;;;;;;23.01;100.00;100595.59;4993658;28;20488;-82
2022/09/12 08:05:36;;;;;;;;;;;;;;;22.76;100.00;100599.41;4995621;28;19929;-78
2022/09/12 08:08:04;;;;;;;;;;;;;;;22.84;100.00;100600.66;4993398;28;19922;-81
2022/09/12 08:10:35;;;;;;;;;;;;;;;22.97;100.00;100597.28;4995320;28;19925;-82
2022/09/12 08:13:06;;;;;;;;;;;;;;;22.16;100.00;100594.41;4994220;28;20310;-78
2022/09/12 08:15:34;;;;;;;;;;;;;;;23.23;100.00;100594.19;4995517;28;19922;-77
2022/09/12 08:18:01;;;;;;;;;;;;;;;23.20;100.00;100587.44;4993901;28;20409;-77
2022/09/12 08:20:30;;;;;;;;;;;;;;;24.08;100.00;100589.56;4994572;28;19922;-81
2022/09/12 08:22:57;;;;;;;;;;;;;;;23.68;100.00;100589.97;4993346;28;19985;-81
2022/09/12 08:25:28;;;;;;;;;;;;;;;22.71;100.00;100580.50;4994148;28;19937;-80
2022/09/12 08:27:55;;;;;;;;;;;;;;;22.87;100.00;100575.69;4991985;28;19983;-80
2022/09/12 08:30:23;;;;;;;;;;;;;;;22.93;100.00;100588.06;4993451;28;19926;-81
2022/09/12 08:32:50;;;;;;;;;;;;;;;22.55;100.00;100577.19;4993559;28;19925;-81
2022/09/12 08:35:16;;;;;;;;;;;;;;;23.20;100.00;100575.81;4993235;28;20286;-78
2022/09/12 08:37:43;;;;;;;;;;;;;;;23.01;100.00;100573.13;4990590;28;19921;-79
2022/09/12 08:40:14;;;;;;;;;;;;;;;23.08;100.00;100573.53;4996393;28;19926;-78
2022/09/12 08:42:47;;;;;;;;;;;;;;;23.24;100.00;100568.72;4986603;28;19984;-79
2022/09/12 08:45:19;;;;;;;;;;;;;;;23.87;100.00;100560.09;4986032;28;19922;-78
2022/09/12 08:47:47;;;;;;;;;;;;;;;23.93;100.00;100555.41;4990011;28;19922;-79
2022/09/12 08:50:16;;;;;;;;;;;;;;;24.08;100.00;100563.25;4987504;28;19922;-81
2022/09/12 08:52:49;;;;;;;;;;;;;;;24.80;100.00;100553.69;4995071;28;19922;-76
2022/09/12 08:55:29;;;;;;;;;;;;;;;24.49;100.00;100543.50;4992447;28;19925;-78
2022/09/12 08:57:55;;;;;;;;;;;;;;;25.13;99.64;100548.91;4992692;28;19922;-80
2022/09/12 09:00:22;;;;;;;;;;;;;;;25.35;100.00;100546.19;4990239;28;19937;-81
2022/09/12 09:03:04;;;;;;;;;;;;;;;25.67;99.92;100541.59;4990399;28;20005;-81
2022/09/12 09:05:39;;;;;;;;;;;;;;;25.52;95.41;100534.63;4980448;28;20358;-79
2022/09/12 09:08:12;;;;;;;;;;;;;;;23.81;91.29;100541.50;4994260;28;19988;-80
2022/09/12 09:10:45;;;;;;;;;;;;;;;24.73;97.15;100534.31;4994450;28;19921;-80
2022/09/12 09:14:46;;;;;;;;;;;;;;;24.77;97.08;100533.38;4994094;28;19932;-78
2022/09/12 09:16:07;;;;;;;;;;;;;;;25.31;95.80;100525.38;4986405;28;20024;-79
2022/09/12 09:18:34;;;;;;;;;;;;;;;25.38;99.58;100523.03;4993584;28;20434;-78
2022/09/12 09:21:05;;;;;;;;;;;;;;;25.04;100.00;100535.22;4993929;28;20446;-81
2022/09/12 09:23:35;;;;;;;;;;;;;;;25.58;90.61;100525.22;4989762;28;19992;-80
2022/09/12 09:26:06;;;;;;;;;;;;;;;25.84;89.36;100521.91;4998027;28;19929;-77
2022/09/12 09:28:37;;;;;;;;;;;;;;;25.09;86.06;100516.09;4997491;28;20374;-81
2022/09/12 09:31:05;;;;;;;;;;;;;;;25.26;85.85;100515.44;4998091;28;19988;-81
2022/09/12 09:33:34;;;;;;;;;;;;;;;25.25;92.30;100511.09;4998186;28;19921;-78
2022/09/12 09:36:06;;;;;;;;;;;;;;;25.74;97.59;100513.97;4998387;28;19928;-81
2022/09/12 09:38:39;;;;;;;;;;;;;;;25.81;89.64;100511.59;5004831;28;20421;-78
2022/09/12 09:41:21;;;;;;;;;;;;;;;25.86;93.18;100511.47;4996286;28;19921;-77
2022/09/12 09:43:48;;;;;;;;;;;;;;;26.13;83.07;100501.50;4997228;28;19922;-80
2022/09/12 09:46:17;;;;;;;;;;;;;;;25.83;94.24;100503.16;4997791;28;19929;-79
2022/09/12 09:48:45;;;;;;;;;;;;;;;25.64;91.31;100498.72;4997332;28;19930;-78
2022/09/12 09:51:15;;;;;;;;;;;;;;;25.67;94.92;100498.09;4997674;28;19930;-77
2022/09/12 09:53:45;;;;;;;;;;;;;;;26.04;83.20;100490.59;4997404;28;19992;-76
2022/09/12 09:56:16;;;;;;;;;;;;;;;25.61;86.71;100507.50;4997541;28;20013;-80
2022/09/12 09:58:44;;;;;;;;;;;;;;;26.07;90.84;100506.28;4997383;28;20430;-82
2022/09/12 10:01:20;;;;;;;;;;;;;;;26.34;81.89;100493.56;4997090;28;19934;-81
2022/09/12 10:03:51;;;;;;;;;;;;;;;26.58;83.23;100491.22;4995607;28;20061;-78
2022/09/12 10:06:29;;;;;;;;;;;;;;;26.21;74.49;100493.38;5001001;28;19972;-78
2022/09/12 10:09:17;;;;;;;;;;;;;;;26.48;83.24;100486.84;4978257;28;19957;-81
2022/09/12 10:11:46;;;;;;;;;;;;;;;26.49;75.03;100485.75;4995060;28;19983;-77
2022/09/12 10:14:37;;;;;;;;;;;;;;;25.98;81.50;100489.94;4992215;28;19922;-80
2022/09/12 10:17:23;;;;;;;;;;;;;;;25.61;75.17;100501.25;4992403;28;19965;-77
2022/09/12 10:19:50;;;;;;;;;;;;;;;26.23;64.70;100499.31;4993604;28;19932;-77
2022/09/12 10:22:21;;;;;;;;;;;;;;;26.69;68.48;100483.56;4997052;28;19928;-82
2022/09/12 10:24:53;;;;;;;;;;;;;;;26.28;56.88;100484.72;4996675;28;20008;-80
2022/09/12 10:27:21;;;;;;;;;;;;;;;26.60;66.97;100493.63;4996948;28;19922;-82
2022/09/12 10:29:50;;;;;;;;;;;;;;;27.02;55.73;100499.38;4997059;28;19922;-76
2022/09/12 10:32:23;;;;;;;;;;;;;;;25.65;62.59;100496.78;4995390;28;19922;-82
2022/09/12 10:34:53;;;;;;;;;;;;;;;28.18;58.89;100482.88;4997014;28;19922;-78
2022/09/12 10:37:25;;;;;;;;;;;;;;;27.32;58.84;100489.44;4996431;28;19925;-78
2022/09/12 10:39:53;;;;;;;;;;;;;;;26.46;55.85;100480.13;4988490;28;20012;-78
2022/09/12 10:42:34;;;;;;;;;;;;;;;27.20;53.06;100481.13;4989630;28;19952;-79
2022/09/12 10:45:06;;;;;;;;;;;;;;;27.80;59.83;100478.25;4994961;28;20374;-78
2022/09/12 10:47:32;;;;;;;;;;;;;;;26.28;55.46;100473.84;4995198;28;19922;-82
2022/09/12 10:50:14;;;;;;;;;;;;;;;26.03;67.83;100475.38;4996238;28;19922;-79
2022/09/12 10:52:44;;;;;;;;;;;;;;;26.84;55.13;100482.25;4996535;28;19926;-79
2022/09/12 10:55:14;;;;;;;;;;;;;;;26.16;58.34;100488.06;4996486;28;19921;-86
2022/09/12 10:57:55;;;;;;;;;;;;;;;26.42;62.05;100482.69;4996733;28;19925;-78
2022/09/12 11:00:26;;;;;;;;;;;;;;;27.22;52.24;100479.69;4984952;28;20426;-79
2022/09/12 11:03:08;;;;;;;;;;;;;;;26.57;54.46;100481.47;4995831;28;19921;-79
2022/09/12 11:05:41;;;;;;;;;;;;;;;27.11;61.43;100487.38;4993284;28;19930;-78
2022/09/12 11:08:14;;;;;;;;;;;;;;;27.08;59.54;100485.31;4995535;28;19928;-79
2022/09/12 11:10:45;;;;;;;;;;;;;;;27.54;54.17;100483.78;4996152;28;19933;-80
2022/09/12 11:13:18;;;;;;;;;;;;;;;26.84;60.25;100480.34;4996151;28;19922;-81
2022/09/12 11:15:52;;;;;;;;;;;;;;;27.17;63.35;100475.22;4996289;28;19988;-78
2022/09/12 11:18:33;;;;;;;;;;;;;;;27.37;62.63;100467.47;4993751;28;19984;-77
2022/09/12 11:21:10;;;;;;;;;;;;;;;27.72;54.66;100473.63;4991829;28;19922;-80
2022/09/12 11:23:54;;;;;;;;;;;;;;;26.56;69.86;100468.16;4991104;28;19929;-81
2022/09/12 11:26:34;;;;;;;;;;;;;;;26.41;56.55;100467.44;4994284;28;19925;-82
2022/09/12 11:29:07;;;;;;;;;;;;;;;25.70;62.19;100464.03;4992881;28;19929;-78
2022/09/12 11:31:47;;;;;;;;;;;;;;;25.98;57.16;100459.19;4992101;28;19928;-79
2022/09/12 11:34:17;;;;;;;;;;;;;;;27.74;63.07;100448.72;4991623;28;19921;-81
2022/09/12 11:36:52;;;;;;;;;;;;;;;27.43;60.29;100452.53;4990048;28;19922;-78
2022/09/12 11:39:23;;;;;;;;;;;;;;;27.56;55.44;100458.91;4988769;28;20398;-82
2022/09/12 11:41:56;;;;;;;;;;;;;;;26.72;53.22;100459.19;4995289;28;19927;-79
2022/09/12 11:44:24;;;;;;;;;;;;;;;27.56;55.29;100451.50;4987326;28;19980;-78
2022/09/12 11:46:54;;;;;;;;;;;;;;;26.88;58.88;100454.06;4989559;28;19933;-79
2022/09/12 11:49:25;;;;;;;;;;;;;;;25.94;77.04;100439.19;4994147;28;20369;-81
2022/09/12 11:51:54;;;;;;;;;;;;;;;25.39;64.03;100461.31;4994606;28;19925;-80
2022/09/12 11:54:23;;;;;;;;;;;;;;;25.51;70.58;100459.63;4987012;28;19999;-77
2022/09/12 11:57:00;;;;;;;;;;;;;;;25.31;69.44;100446.56;4990434;28;19925;-78
2022/09/12 11:59:35;;;;;;;;;;;;;;;26.59;67.80;100446.50;4990055;28;19933;-78
2022/09/12 12:02:03;;;;;;;;;;;;;;;27.47;57.34;100430.84;4991833;28;19992;-77
2022/09/12 12:04:34;;;;;;;;;;;;;;;26.95;54.78;100429.84;4990724;28;19921;-78
2022/09/12 12:07:07;;;;;;;;;;;;;;;27.43;52.11;100422.53;4988097;28;20005;-81
2022/09/12 12:09:45;;;;;;;;;;;;;;;27.04;54.47;100424.38;4986549;28;19926;-79
2022/09/12 12:12:18;;;;;;;;;;;;;;;28.06;51.77;100415.34;4989507;28;19926;-81
2022/09/12 12:14:49;;;;;;;;;;;;;;;29.41;46.18;100420.59;4990842;28;19926;-79
2022/09/12 12:17:21;;;;;;;;;;;;;;;28.28;47.42;100414.22;4987528;28;19965;-82
2022/09/12 12:19:59;;;;;;;;;;;;;;;27.70;48.41;100420.50;4987304;28;20307;-78
2022/09/12 12:22:25;;;;;;;;;;;;;;;29.44;45.24;100412.53;4984646;28;19933;-83
2022/09/12 12:25:02;;;;;;;;;;;;;;;27.73;53.18;100415.19;4990881;28;19929;-83
2022/09/12 12:27:45;;;;;;;;;;;;;;;28.05;45.30;100407.50;4990882;28;19976;-78
2022/09/12 12:30:27;;;;;;;;;;;;;;;27.40;46.42;100413.06;4990644;28;19932;-78
2022/09/12 12:33:02;;;;;;;;;;;;;;;27.27;45.80;100405.13;4979164;28;19988;-84
2022/09/12 12:35:47;;;;;;;;;;;;;;;28.17;48.22;100396.66;4991335;28;19922;-78
2022/09/12 12:38:27;;;;;;;;;;;;;;;29.20;41.50;100396.91;4993091;28;19925;-81
2022/09/12 12:40:55;;;;;;;;;;;;;;;29.40;43.18;100400.66;4990635;28;19926;-82
2022/09/12 12:43:33;;;;;;;;;;;;;;;28.72;43.08;100386.59;4990058;28;19949;-83
2022/09/12 12:46:15;;;;;;;;;;;;;;;28.93;41.56;100392.81;4990118;28;19922;-82
2022/09/12 12:48:55;;;;;;;;;;;;;;;28.05;40.15;100389.19;4992199;28;19922;-81